ADDS METAR Data INFO
IDs: Format: Raw Decoded Include TAF

Data at: 1810 UTC 14 Aug 2018

PAWG 141756Z 36005KT 4SM BR FEW005 BKN015 OVC030 14/14 A2997 RMK AO2 RAB17E50 SLP149 6//// T01440139 10150 20128 51003 PNO $
PAWG 141656Z 29006KT 10SM FEW005 BKN015 OVC030 14/13 A2997 RMK AO2 SLP148 T01440133 PNO $
PAWG 141555Z 32003KT 10SM FEW005 BKN015 OVC030 14/13 A2996
PAWG 141456Z 32004KT 10SM SCT005 BKN010 OVC030 13/13 A2996 RMK AO2 RAE10 SLP146 6//// T01330128 55002 PNO $
PAWG 141356Z 29003KT 6SM -RA BR OVC042 13/13 A2995 RMK AO2 SLP144 T01280128 PNO $
PAWG 141256Z AUTO 29004KT 3SM -RA BR SCT027 OVC034 13/13 A2996 RMK AO2 SLP146 T01330128 TSNO PNO $
PAWG 141242Z AUTO 26004KT 3SM -RA BR BKN025 OVC036 13/13 A2996 RMK AO2 TSNO PNO $
PAWG 141156Z AUTO 28005KT 10SM -RA OVC038 13/13 A2997 RMK AO2 SLP148 6//// 7//// T01280128 10133 20122 56013 TSNO PNO $
PAWG 141036Z AUTO VRB04KT 5SM -RA BR FEW005 BKN033 OVC044 13/13 A2998 RMK AO2 TSNO PNO $
PAWG 141007Z AUTO 08008KT 7SM -RA FEW024 SCT033 OVC050 13/12 A2999 RMK AO2 TSNO PNO $
PAWG 140956Z AUTO 08006KT 6SM -RA BR SCT022 BKN029 OVC050 13/12 A2999 RMK AO2 SLP156 T01330122 TSNO PNO $
PAWG 140911Z AUTO 08009KT 7SM RA FEW007 BKN025 OVC050 13/13 A3000 RMK AO2 P0000 TSNO
PAWG 140856Z AUTO 08009KT 7SM -RA FEW007 SCT025 OVC048 13/13 A3001 RMK AO2 SLP161 P0000 60000 T01280128 401720122 58012 TSNO
PAWG 140848Z AUTO VRB03KT 5SM -RA BR FEW007 BKN024 OVC048 13/13 A3001 RMK AO2 P0000 TSNO
PAWG 140845Z AUTO 11003KT 2SM -RA BR FEW007 BKN034 OVC048 13/12 A3002 RMK AO2 VIS 3/4V5 P0000 TSNO
PAWG 140825Z AUTO 00000KT 2 1/2SM -RA BR SCT015 BKN023 OVC048 13/12 A3003 RMK AO2 P0000 TSNO
PAWG 140803Z AUTO 00000KT 3SM -RA BR BKN023 OVC029 13/12 A3003 RMK AO2 P0000 TSNO
PAWG 140726Z AUTO 27003KT 2 1/2SM -RA BR SCT004 BKN012 OVC027 12/12 A3004 RMK AO2 P0000 TSNO
PAWG 140701Z AUTO 28003KT 4SM -RA BR FEW006 BKN028 OVC033 13/12 A3004 RMK AO2 P0000 TSNO
PAWG 140656Z AUTO 00000KT 5SM -RA BR FEW010 BKN030 OVC045 13/12 A3004 RMK AO2 SLP174 P0000 T01280122 TSNO
PAWG 140556Z 00000KT 10SM -RA FEW010 BKN030 OVC045 13/12 A3007 RMK AO2 RAE08B33 SLP182 P0000 60000 T01280122 10167 20122 58015
PAWG 140456Z 00000KT 10SM -RA FEW010 BKN030 OVC045 13/12 A3008
PAWG 140356Z 27003KT 10SM -RA BKN035 OVC045 12/12 A3010 RMK AO2 SLP194 P0000 T01220117
PAWG 140256Z 13004KT 9SM -RA SCT025 BKN045 OVC065 13/12 A3011 RMK AO2 SLP197 P0000 60000 T01330122 58022
PAWG 140156Z 31004KT 10SM -RA SCT025 BKN045 OVC065 13/12 A3015
PAWG 140056Z 11003KT 10SM SCT025 BKN045 OVC065 14/12 A3014 RMK PRESFR
PAWG 132356Z 22004KT 10SM SCT025 BKN045 OVC065 17/12 A3018 RMK AO2 SLP219 T01670117 10172 20144 56007
PAWG 132256Z 27006KT 10SM SCT025 BKN045 OVC065 17/12 A3019
PAWG 132156Z 24009KT 10SM SCT025 BKN045 OVC065 17/12 A3018 RMK AO2 SLP220 T01720122
PAWG 132056Z 30004KT 10SM FEW010 BKN030 OVC045 15/12 A3020 RMK AO2 SLP227 T01500117 58007
PAWG 131956Z 34003KT 10SM FEW010 BKN030 OVC045 15/12 A3021 RMK AO2 SLP229 T01500122
PAWG 131856Z 25004KT 10SM SCT010 BKN030 OVC045 16/12 A3022 RMK AO2 SLP232 T01560122
PAWG 131756Z 23007KT 10SM FEW005 BKN030 OVC045 16/12 A3022 RMK AO2 SLP234 P0001 60001 T01560122 10156 20122 55005
PAWG 131656Z 00000KT 10SM FEW005 BKN030 OVC045 14/13 A3021 RMK AO2 SLP230 T01440128
PAWG 131556Z 00000KT 10SM FEW005 BKN030 OVC045 13/12 A3023 RMK AO2 SLP237 T01330122
PAWG 131456Z 00000KT 10SM FEW005 BKN030 OVC045 13/12 A3024 RMK AO2 SLP239 T01330122 58004
PAWG 131404Z 00000KT 10SM FEW005 BKN030 OVC045 13/12 A3024 RMK AO2
PAWG 131356Z 00000KT 10SM FEW008 OVC021 13/12 A3024 RMK AO2 SLP240 T01330122
PAWG 131256Z AUTO 00000KT 10SM BKN029 OVC037 14/13 A3025 RMK AO2 SLP243 T01390128 TSNO
PAWG 131254Z AUTO 00000KT 10SM BKN029 OVC037 14/13 A3025 RMK AO2 TSNO
PAWG 131239Z AUTO 19003KT 10SM OVC031 13/12 A3025 RMK AO2 TSNO
PAWG 131205Z AUTO 00000KT 10SM OVC028 13/12 A3026 RMK AO2 TSNO
PAWG 131156Z AUTO 00000KT 10SM OVC030 13/12 A3026 RMK AO2 SLP246 T01280122 10150 20122 53000 TSNO
PAWG 131056Z AUTO 00000KT 10SM BKN032 OVC040 12/12 A3025 RMK AO2 SLP246 T01220117 TSNO
PAWG 130756Z AUTO 00000KT 10SM SCT040 13/12 A3025 RMK AO2 SLP245 T01330117 TSNO
PAWG 130656Z AUTO 00000KT 10SM FEW036 SCT043 BKN120 14/12 A3025 RMK AO2 SLP245 T01440122 TSNO